Terminal Aerodrome Forecast
Issued by NWS Brownsville, TX

Current Version | Previous Version | Text Only | Print | Product List | Glossary Off
Versions: 1 2 3 4 5 6 7 8 9 10 11 12 13 14 15 16 17

000
FTUS44 KBRO 281720
TAFHRL
TAF
KHRL 281720Z 2818/2918 18014KT P6SM SKC
     FM290000 15012KT P6SM SKC
     FM290300 15008KT P6SM BKN250
     FM290600 13006KT 4SM BR BKN050
     FM290900 14006KT 1/4SM FG BKN250
     FM291500 16010KT P6SM SCT250=

USA.gov is the U.S. government's official web portal to all federal, state and local government web resources and services.